Clayton, Washington
Current Conditions -  °F | °C
As of 1:53 AM on Monday 20 Oct 2014 (Local Time) from KDEW Reporting Station
Clear Clear  
Wind Chill:   Ceiling: Unl
Heat Index:   Visibility: 10mi
Dew Point:   Wind: 3mph
Humidity: 90%   Direction: 340°NNW
Pressure: 29.77"   Gusts: NA
Location:  47.99°N, 117.56°W
Report Text: KDEW 200853Z AUTO 34003KT 10SM CLR 09/08 A2977 RMK AO2 SLP074 T00940078 56006
Loading
Personal Weather Stations






























Interactive Weather Map
Tropical Storm Tracking
New forecast layout! Learn more

10-Day Weather Forecast

Advertisements
Track Severe Weather on mobile